sensor_id;sensor_type;location;lat;lon;timestamp;pressure;altitude;pressure_sealevel;temperature;humidity
69570;BME280;56781;42.292;23.146;2023-03-16T00:00:17;94629.25;;;3.09;98.23
69570;BME280;56781;42.292;23.146;2023-03-16T00:02:45;94646.06;;;3.28;97.16
69570;BME280;56781;42.292;23.146;2023-03-16T00:05:12;94640.28;;;3.21;95.75
69570;BME280;56781;42.292;23.146;2023-03-16T00:07:40;94669.50;;;3.40;95.45
69570;BME280;56781;42.292;23.146;2023-03-16T00:10:10;94637.94;;;3.15;95.10
69570;BME280;56781;42.292;23.146;2023-03-16T00:12:38;94664.28;;;3.30;95.76
69570;BME280;56781;42.292;23.146;2023-03-16T00:15:10;94648.59;;;3.04;96.24
69570;BME280;56781;42.292;23.146;2023-03-16T00:17:38;94648.56;;;3.09;95.94
69570;BME280;56781;42.292;23.146;2023-03-16T00:20:05;94661.00;;;3.04;96.25
69570;BME280;56781;42.292;23.146;2023-03-16T00:22:33;94676.53;;;3.16;96.44
69570;BME280;56781;42.292;23.146;2023-03-16T00:25:00;94695.72;;;3.37;95.27
69570;BME280;56781;42.292;23.146;2023-03-16T00:27:28;94680.50;;;3.18;95.76
69570;BME280;56781;42.292;23.146;2023-03-16T00:29:55;94681.84;;;3.16;95.21
69570;BME280;56781;42.292;23.146;2023-03-16T00:32:29;94696.59;;;3.22;93.56
69570;BME280;56781;42.292;23.146;2023-03-16T00:35:00;94674.53;;;2.97;94.77
69570;BME280;56781;42.292;23.146;2023-03-16T00:37:28;94709.06;;;3.16;95.15
69570;BME280;56781;42.292;23.146;2023-03-16T00:39:56;94691.66;;;3.10;95.17
69570;BME280;56781;42.292;23.146;2023-03-16T00:42:26;94688.50;;;3.03;95.91
69570;BME280;56781;42.292;23.146;2023-03-16T00:44:57;94716.94;;;3.26;95.10
69570;BME280;56781;42.292;23.146;2023-03-16T00:47:29;94719.66;;;3.16;95.09
69570;BME280;56781;42.292;23.146;2023-03-16T00:49:58;94721.16;;;3.27;93.03
69570;BME280;56781;42.292;23.146;2023-03-16T00:52:26;94688.25;;;3.04;93.41
69570;BME280;56781;42.292;23.146;2023-03-16T00:54:55;94740.75;;;3.26;94.23
69570;BME280;56781;42.292;23.146;2023-03-16T00:57:24;94702.78;;;3.02;92.84
69570;BME280;56781;42.292;23.146;2023-03-16T00:59:51;94714.13;;;3.07;93.54
69570;BME280;56781;42.292;23.146;2023-03-16T01:02:19;94715.91;;;3.17;94.90
69570;BME280;56781;42.292;23.146;2023-03-16T01:04:50;94705.09;;;3.14;92.61
69570;BME280;56781;42.292;23.146;2023-03-16T01:07:18;94718.88;;;3.10;93.01
69570;BME280;56781;42.292;23.146;2023-03-16T01:09:46;94722.06;;;3.13;95.13
69570;BME280;56781;42.292;23.146;2023-03-16T01:12:16;94725.72;;;3.17;93.54
69570;BME280;56781;42.292;23.146;2023-03-16T01:14:44;94751.00;;;3.38;92.44
69570;BME280;56781;42.292;23.146;2023-03-16T01:17:15;94725.47;;;3.13;91.97
69570;BME280;56781;42.292;23.146;2023-03-16T01:19:43;94730.25;;;3.06;91.06
69570;BME280;56781;42.292;23.146;2023-03-16T01:22:11;94728.88;;;3.19;91.76
69570;BME280;56781;42.292;23.146;2023-03-16T01:24:39;94748.53;;;2.97;91.34
69570;BME280;56781;42.292;23.146;2023-03-16T01:27:07;94748.84;;;2.91;91.03
69570;BME280;56781;42.292;23.146;2023-03-16T01:29:35;94748.56;;;2.87;94.54
69570;BME280;56781;42.292;23.146;2023-03-16T01:32:03;94744.84;;;2.93;92.18
69570;BME280;56781;42.292;23.146;2023-03-16T01:34:30;94749.34;;;2.93;92.94
69570;BME280;56781;42.292;23.146;2023-03-16T01:36:58;94747.31;;;2.74;91.75
69570;BME280;56781;42.292;23.146;2023-03-16T01:39:26;94762.31;;;2.89;94.25
69570;BME280;56781;42.292;23.146;2023-03-16T01:41:53;94787.63;;;3.05;92.50
69570;BME280;56781;42.292;23.146;2023-03-16T01:44:23;94772.66;;;2.80;93.51
69570;BME280;56781;42.292;23.146;2023-03-16T01:46:54;94763.69;;;2.71;93.40
69570;BME280;56781;42.292;23.146;2023-03-16T01:49:30;94768.13;;;2.91;93.31
69570;BME280;56781;42.292;23.146;2023-03-16T01:52:03;94766.06;;;2.78;93.53
69570;BME280;56781;42.292;23.146;2023-03-16T01:54:48;94767.72;;;2.53;95.12
69570;BME280;56781;42.292;23.146;2023-03-16T01:57:26;94794.38;;;2.62;95.44
69570;BME280;56781;42.292;23.146;2023-03-16T02:02:39;94776.97;;;2.40;95.87
69570;BME280;56781;42.292;23.146;2023-03-16T02:05:18;94809.91;;;2.79;95.70
69570;BME280;56781;42.292;23.146;2023-03-16T02:07:50;94793.59;;;2.56;92.39
69570;BME280;56781;42.292;23.146;2023-03-16T02:10:26;94798.34;;;2.44;93.55
69570;BME280;56781;42.292;23.146;2023-03-16T02:12:54;94769.03;;;2.40;93.89
69570;BME280;56781;42.292;23.146;2023-03-16T02:15:24;94789.38;;;2.55;92.35
69570;BME280;56781;42.292;23.146;2023-03-16T02:17:51;94792.81;;;2.40;93.25
69570;BME280;56781;42.292;23.146;2023-03-16T02:22:56;94789.38;;;2.30;92.67
69570;BME280;56781;42.292;23.146;2023-03-16T02:28:29;94830.56;;;2.51;94.39
69570;BME280;56781;42.292;23.146;2023-03-16T02:30:59;94804.19;;;2.31;93.85
69570;BME280;56781;42.292;23.146;2023-03-16T02:33:29;94812.63;;;2.43;94.67
69570;BME280;56781;42.292;23.146;2023-03-16T02:35:57;94819.75;;;2.42;92.07
69570;BME280;56781;42.292;23.146;2023-03-16T02:38:24;94810.50;;;2.45;91.51
69570;BME280;56781;42.292;23.146;2023-03-16T02:41:10;94833.22;;;2.66;91.01
69570;BME280;56781;42.292;23.146;2023-03-16T02:43:44;94824.75;;;2.54;91.33
69570;BME280;56781;42.292;23.146;2023-03-16T02:46:13;94858.56;;;2.52;91.80
69570;BME280;56781;42.292;23.146;2023-03-16T02:48:48;94841.69;;;2.43;91.26
69570;BME280;56781;42.292;23.146;2023-03-16T02:51:19;94812.91;;;2.16;91.69
69570;BME280;56781;42.292;23.146;2023-03-16T02:53:46;94831.91;;;2.13;92.74
69570;BME280;56781;42.292;23.146;2023-03-16T02:56:13;94823.72;;;2.04;92.69
69570;BME280;56781;42.292;23.146;2023-03-16T02:58:41;94857.53;;;2.17;92.43
69570;BME280;56781;42.292;23.146;2023-03-16T03:01:08;94874.16;;;2.23;93.27
69570;BME280;56781;42.292;23.146;2023-03-16T03:03:35;94841.66;;;1.97;94.12
69570;BME280;56781;42.292;23.146;2023-03-16T03:06:02;94855.91;;;1.96;94.59
69570;BME280;56781;42.292;23.146;2023-03-16T03:08:29;94850.63;;;1.86;95.35
69570;BME280;56781;42.292;23.146;2023-03-16T03:10:58;94858.00;;;1.84;95.62
69570;BME280;56781;42.292;23.146;2023-03-16T03:13:25;94860.66;;;1.89;95.54
69570;BME280;56781;42.292;23.146;2023-03-16T03:15:53;94847.41;;;1.73;96.92
69570;BME280;56781;42.292;23.146;2023-03-16T03:18:20;94878.06;;;1.80;97.72
69570;BME280;56781;42.292;23.146;2023-03-16T03:20:47;94893.69;;;2.07;98.25
69570;BME280;56781;42.292;23.146;2023-03-16T03:23:14;94867.50;;;1.90;99.73
69570;BME280;56781;42.292;23.146;2023-03-16T03:25:42;94877.03;;;2.01;97.66
69570;BME280;56781;42.292;23.146;2023-03-16T03:28:11;94863.03;;;1.90;96.86
69570;BME280;56781;42.292;23.146;2023-03-16T03:30:38;94865.09;;;1.78;97.38
69570;BME280;56781;42.292;23.146;2023-03-16T03:33:05;94895.25;;;2.08;96.77
69570;BME280;56781;42.292;23.146;2023-03-16T03:35:32;94881.00;;;2.09;97.62
69570;BME280;56781;42.292;23.146;2023-03-16T03:37:59;94880.72;;;1.95;96.41
69570;BME280;56781;42.292;23.146;2023-03-16T03:40:27;94879.97;;;2.10;95.95
69570;BME280;56781;42.292;23.146;2023-03-16T03:42:54;94889.19;;;2.07;90.66
69570;BME280;56781;42.292;23.146;2023-03-16T03:45:21;94897.91;;;2.08;94.17
69570;BME280;56781;42.292;23.146;2023-03-16T03:47:48;94882.31;;;1.96;94.45
69570;BME280;56781;42.292;23.146;2023-03-16T03:50:16;94923.22;;;2.09;93.76
69570;BME280;56781;42.292;23.146;2023-03-16T03:52:44;94901.81;;;1.80;96.26
69570;BME280;56781;42.292;23.146;2023-03-16T03:55:11;94898.59;;;1.72;94.98
69570;BME280;56781;42.292;23.146;2023-03-16T03:57:39;94922.66;;;1.91;95.12
69570;BME280;56781;42.292;23.146;2023-03-16T04:00:07;94893.34;;;1.83;95.20
69570;BME280;56781;42.292;23.146;2023-03-16T04:02:39;94903.91;;;1.83;94.80
69570;BME280;56781;42.292;23.146;2023-03-16T04:05:07;94905.75;;;1.77;93.87
69570;BME280;56781;42.292;23.146;2023-03-16T04:07:34;94908.38;;;1.87;94.76
69570;BME280;56781;42.292;23.146;2023-03-16T04:10:01;94913.88;;;1.70;94.00
69570;BME280;56781;42.292;23.146;2023-03-16T04:12:28;94929.09;;;1.48;96.38
69570;BME280;56781;42.292;23.146;2023-03-16T04:14:55;94928.00;;;1.44;98.61
69570;BME280;56781;42.292;23.146;2023-03-16T04:17:22;94920.63;;;1.41;98.76
69570;BME280;56781;42.292;23.146;2023-03-16T04:19:50;94914.53;;;1.35;99.96
69570;BME280;56781;42.292;23.146;2023-03-16T04:22:17;94930.88;;;1.32;100.00
69570;BME280;56781;42.292;23.146;2023-03-16T04:24:45;94955.72;;;1.41;100.00
69570;BME280;56781;42.292;23.146;2023-03-16T04:27:12;94934.84;;;1.35;100.00
69570;BME280;56781;42.292;23.146;2023-03-16T04:29:39;94941.72;;;1.41;100.00
69570;BME280;56781;42.292;23.146;2023-03-16T04:32:06;94966.91;;;1.64;100.00
69570;BME280;56781;42.292;23.146;2023-03-16T04:34:33;94943.94;;;1.64;100.00
69570;BME280;56781;42.292;23.146;2023-03-16T04:37:00;94955.03;;;1.66;100.00
69570;BME280;56781;42.292;23.146;2023-03-16T04:39:28;94953.94;;;1.62;100.00
69570;BME280;56781;42.292;23.146;2023-03-16T04:41:55;94951.69;;;1.86;100.00
69570;BME280;56781;42.292;23.146;2023-03-16T04:44:22;94981.03;;;2.05;98.23
69570;BME280;56781;42.292;23.146;2023-03-16T04:46:51;94979.72;;;2.03;95.04
69570;BME280;56781;42.292;23.146;2023-03-16T04:49:18;94960.19;;;1.98;97.18
69570;BME280;56781;42.292;23.146;2023-03-16T04:51:46;94963.84;;;1.92;97.08
69570;BME280;56781;42.292;23.146;2023-03-16T04:54:13;94973.66;;;2.02;96.73
69570;BME280;56781;42.292;23.146;2023-03-16T04:56:40;94975.22;;;2.03;97.92
69570;BME280;56781;42.292;23.146;2023-03-16T04:59:07;94994.75;;;2.02;98.09
69570;BME280;56781;42.292;23.146;2023-03-16T05:01:34;94980.75;;;1.96;97.70
69570;BME280;56781;42.292;23.146;2023-03-16T05:04:01;94992.13;;;2.02;94.65
69570;BME280;56781;42.292;23.146;2023-03-16T05:06:28;94986.28;;;1.95;94.59
69570;BME280;56781;42.292;23.146;2023-03-16T05:08:58;95009.38;;;2.30;93.68
69570;BME280;56781;42.292;23.146;2023-03-16T05:11:26;94993.16;;;1.96;93.25
69570;BME280;56781;42.292;23.146;2023-03-16T05:13:53;94992.84;;;1.82;93.56
69570;BME280;56781;42.292;23.146;2023-03-16T05:16:21;94992.88;;;1.92;92.94
69570;BME280;56781;42.292;23.146;2023-03-16T05:18:48;94986.25;;;1.85;90.55
69570;BME280;56781;42.292;23.146;2023-03-16T05:21:15;94994.63;;;1.66;90.26
69570;BME280;56781;42.292;23.146;2023-03-16T05:23:42;95011.59;;;1.86;92.07
69570;BME280;56781;42.292;23.146;2023-03-16T05:26:09;95009.22;;;1.89;92.34
69570;BME280;56781;42.292;23.146;2023-03-16T05:28:38;95008.38;;;1.78;90.62
69570;BME280;56781;42.292;23.146;2023-03-16T05:31:06;95004.19;;;1.83;90.61
69570;BME280;56781;42.292;23.146;2023-03-16T05:33:33;95031.66;;;1.92;90.00
69570;BME280;56781;42.292;23.146;2023-03-16T05:36:01;95042.81;;;2.04;89.47
69570;BME280;56781;42.292;23.146;2023-03-16T05:38:29;95010.84;;;2.00;86.91
69570;BME280;56781;42.292;23.146;2023-03-16T05:40:57;95035.78;;;1.72;87.99
69570;BME280;56781;42.292;23.146;2023-03-16T05:43:31;95029.25;;;1.80;90.08
69570;BME280;56781;42.292;23.146;2023-03-16T05:45:58;95020.53;;;1.80;89.08
69570;BME280;56781;42.292;23.146;2023-03-16T05:48:25;95053.78;;;1.81;89.81
69570;BME280;56781;42.292;23.146;2023-03-16T05:50:53;95032.25;;;2.04;87.20
69570;BME280;56781;42.292;23.146;2023-03-16T05:53:20;95041.47;;;1.96;89.18
69570;BME280;56781;42.292;23.146;2023-03-16T05:55:54;95063.16;;;2.04;89.55
69570;BME280;56781;42.292;23.146;2023-03-16T05:58:21;95038.06;;;2.01;89.72
69570;BME280;56781;42.292;23.146;2023-03-16T06:00:49;95043.81;;;1.88;87.56
69570;BME280;56781;42.292;23.146;2023-03-16T06:03:16;95045.56;;;1.72;88.32
69570;BME280;56781;42.292;23.146;2023-03-16T06:05:43;95045.09;;;1.85;89.02
69570;BME280;56781;42.292;23.146;2023-03-16T06:08:10;95068.66;;;1.97;87.71
69570;BME280;56781;42.292;23.146;2023-03-16T06:10:37;95083.03;;;2.27;87.11
69570;BME280;56781;42.292;23.146;2023-03-16T06:13:04;95072.44;;;2.16;89.56
69570;BME280;56781;42.292;23.146;2023-03-16T06:15:32;95056.59;;;2.16;86.80
69570;BME280;56781;42.292;23.146;2023-03-16T06:17:59;95065.03;;;2.18;87.72
69570;BME280;56781;42.292;23.146;2023-03-16T06:20:26;95093.19;;;2.60;88.47
69570;BME280;56781;42.292;23.146;2023-03-16T06:22:54;95101.13;;;2.55;86.00
69570;BME280;56781;42.292;23.146;2023-03-16T06:25:21;95093.41;;;2.43;85.84
69570;BME280;56781;42.292;23.146;2023-03-16T06:27:49;95102.25;;;2.80;83.90
69570;BME280;56781;42.292;23.146;2023-03-16T06:30:17;95079.81;;;3.08;85.43
69570;BME280;56781;42.292;23.146;2023-03-16T06:32:44;95102.84;;;3.43;83.64
69570;BME280;56781;42.292;23.146;2023-03-16T06:35:12;95077.19;;;3.28;83.70
69570;BME280;56781;42.292;23.146;2023-03-16T06:37:39;95076.91;;;3.40;80.87
69570;BME280;56781;42.292;23.146;2023-03-16T06:40:07;95079.84;;;3.28;79.55
69570;BME280;56781;42.292;23.146;2023-03-16T06:42:34;95116.59;;;3.25;80.45
69570;BME280;56781;42.292;23.146;2023-03-16T06:45:02;95110.16;;;2.85;80.27
69570;BME280;56781;42.292;23.146;2023-03-16T06:47:29;95098.25;;;2.67;82.92
69570;BME280;56781;42.292;23.146;2023-03-16T06:49:57;95127.91;;;2.89;81.87
69570;BME280;56781;42.292;23.146;2023-03-16T06:52:24;95118.25;;;2.48;84.23
69570;BME280;56781;42.292;23.146;2023-03-16T06:54:52;95114.34;;;2.55;82.88
69570;BME280;56781;42.292;23.146;2023-03-16T06:57:19;95108.19;;;2.50;84.96
69570;BME280;56781;42.292;23.146;2023-03-16T06:59:47;95133.44;;;2.83;83.47
69570;BME280;56781;42.292;23.146;2023-03-16T07:02:14;95115.94;;;2.61;82.79
69570;BME280;56781;42.292;23.146;2023-03-16T07:04:42;95106.41;;;2.60;83.11
69570;BME280;56781;42.292;23.146;2023-03-16T07:07:10;95121.28;;;2.92;83.44
69570;BME280;56781;42.292;23.146;2023-03-16T07:09:38;95120.94;;;2.63;82.54
69570;BME280;56781;42.292;23.146;2023-03-16T07:12:07;95129.69;;;2.63;81.18
69570;BME280;56781;42.292;23.146;2023-03-16T07:14:35;95125.41;;;2.47;83.26
69570;BME280;56781;42.292;23.146;2023-03-16T07:17:03;95132.84;;;2.65;83.86
69570;BME280;56781;42.292;23.146;2023-03-16T07:19:31;95126.13;;;2.37;82.38
69570;BME280;56781;42.292;23.146;2023-03-16T07:21:58;95171.97;;;2.74;83.28
69570;BME280;56781;42.292;23.146;2023-03-16T07:24:25;95139.56;;;3.04;83.15
69570;BME280;56781;42.292;23.146;2023-03-16T07:26:52;95139.06;;;3.07;80.64
69570;BME280;56781;42.292;23.146;2023-03-16T07:29:19;95171.09;;;3.26;80.60
69570;BME280;56781;42.292;23.146;2023-03-16T07:31:47;95155.75;;;3.18;82.09
69570;BME280;56781;42.292;23.146;2023-03-16T07:34:15;95145.16;;;3.18;81.37
69570;BME280;56781;42.292;23.146;2023-03-16T07:36:42;95149.38;;;3.14;80.19
69570;BME280;56781;42.292;23.146;2023-03-16T07:39:09;95148.00;;;2.96;82.03
69570;BME280;56781;42.292;23.146;2023-03-16T07:41:40;95165.69;;;2.80;82.73
69570;BME280;56781;42.292;23.146;2023-03-16T07:44:07;95161.66;;;2.67;82.76
69570;BME280;56781;42.292;23.146;2023-03-16T07:46:34;95153.47;;;2.69;82.40
69570;BME280;56781;42.292;23.146;2023-03-16T07:49:02;95169.16;;;2.91;84.29
69570;BME280;56781;42.292;23.146;2023-03-16T07:51:29;95192.41;;;2.94;82.73
69570;BME280;56781;42.292;23.146;2023-03-16T07:53:57;95164.59;;;2.76;83.35
69570;BME280;56781;42.292;23.146;2023-03-16T07:56:24;95174.66;;;2.79;81.85
69570;BME280;56781;42.292;23.146;2023-03-16T07:58:55;95198.00;;;3.02;82.10
69570;BME280;56781;42.292;23.146;2023-03-16T08:01:22;95166.25;;;2.97;82.13
69570;BME280;56781;42.292;23.146;2023-03-16T08:03:50;95171.28;;;3.09;81.13
69570;BME280;56781;42.292;23.146;2023-03-16T08:06:17;95187.97;;;3.15;82.71
69570;BME280;56781;42.292;23.146;2023-03-16T08:08:44;95171.88;;;3.26;82.21
69570;BME280;56781;42.292;23.146;2023-03-16T08:11:12;95180.06;;;3.30;81.16
69570;BME280;56781;42.292;23.146;2023-03-16T08:13:39;95170.00;;;3.22;80.21
69570;BME280;56781;42.292;23.146;2023-03-16T08:16:09;95177.47;;;3.50;80.77
69570;BME280;56781;42.292;23.146;2023-03-16T08:18:39;95188.28;;;3.28;79.78
69570;BME280;56781;42.292;23.146;2023-03-16T08:21:08;95178.19;;;3.20;80.82
69570;BME280;56781;42.292;23.146;2023-03-16T08:23:35;95179.72;;;2.96;81.39
69570;BME280;56781;42.292;23.146;2023-03-16T08:26:02;95183.66;;;2.93;82.49
69570;BME280;56781;42.292;23.146;2023-03-16T08:28:34;95184.31;;;3.26;81.13
69570;BME280;56781;42.292;23.146;2023-03-16T08:31:02;95197.59;;;3.57;80.38
69570;BME280;56781;42.292;23.146;2023-03-16T08:33:33;95186.72;;;3.68;80.93
69570;BME280;56781;42.292;23.146;2023-03-16T08:36:05;95198.38;;;3.67;79.17
69570;BME280;56781;42.292;23.146;2023-03-16T08:38:32;95208.19;;;3.82;79.04
69570;BME280;56781;42.292;23.146;2023-03-16T08:41:00;95183.03;;;3.95;79.48
69570;BME280;56781;42.292;23.146;2023-03-16T08:43:27;95205.25;;;4.04;78.07
69570;BME280;56781;42.292;23.146;2023-03-16T08:45:55;95187.00;;;3.92;78.47
69570;BME280;56781;42.292;23.146;2023-03-16T08:48:22;95191.22;;;3.63;78.92
69570;BME280;56781;42.292;23.146;2023-03-16T08:50:49;95189.63;;;3.41;81.27
69570;BME280;56781;42.292;23.146;2023-03-16T08:53:17;95208.63;;;3.28;81.79
69570;BME280;56781;42.292;23.146;2023-03-16T08:55:44;95193.00;;;3.11;82.69
69570;BME280;56781;42.292;23.146;2023-03-16T08:58:12;95183.94;;;2.86;82.20
69570;BME280;56781;42.292;23.146;2023-03-16T09:00:40;95197.47;;;3.05;81.02
69570;BME280;56781;42.292;23.146;2023-03-16T09:03:07;95203.59;;;3.21;81.37
69570;BME280;56781;42.292;23.146;2023-03-16T09:05:36;95189.06;;;3.29;81.25
69570;BME280;56781;42.292;23.146;2023-03-16T09:08:03;95229.31;;;3.41;79.96
69570;BME280;56781;42.292;23.146;2023-03-16T09:10:32;95192.78;;;3.33;80.14
69570;BME280;56781;42.292;23.146;2023-03-16T09:12:59;95200.50;;;3.75;79.85
69570;BME280;56781;42.292;23.146;2023-03-16T09:15:26;95205.53;;;3.77;79.21
69570;BME280;56781;42.292;23.146;2023-03-16T09:17:54;95203.94;;;3.61;78.76
69570;BME280;56781;42.292;23.146;2023-03-16T09:20:23;95197.88;;;3.75;80.48
69570;BME280;56781;42.292;23.146;2023-03-16T09:22:56;95200.75;;;3.43;78.04
69570;BME280;56781;42.292;23.146;2023-03-16T09:25:24;95236.50;;;3.82;77.83
69570;BME280;56781;42.292;23.146;2023-03-16T09:27:52;95207.03;;;3.22;79.21
69570;BME280;56781;42.292;23.146;2023-03-16T09:30:19;95233.00;;;3.40;80.53
69570;BME280;56781;42.292;23.146;2023-03-16T09:32:47;95208.66;;;3.33;80.73
69570;BME280;56781;42.292;23.146;2023-03-16T09:35:15;95211.31;;;3.43;79.25
69570;BME280;56781;42.292;23.146;2023-03-16T09:37:42;95204.97;;;3.44;80.84
69570;BME280;56781;42.292;23.146;2023-03-16T09:40:29;95197.53;;;3.26;79.11
69570;BME280;56781;42.292;23.146;2023-03-16T09:43:35;95201.19;;;3.15;79.63
69570;BME280;56781;42.292;23.146;2023-03-16T09:48:37;95211.78;;;3.09;80.87
69570;BME280;56781;42.292;23.146;2023-03-16T09:51:33;95204.94;;;3.29;80.46
69570;BME280;56781;42.292;23.146;2023-03-16T09:54:02;95211.78;;;3.20;82.57
69570;BME280;56781;42.292;23.146;2023-03-16T09:56:38;95238.03;;;3.42;80.81
69570;BME280;56781;42.292;23.146;2023-03-16T09:59:11;95232.22;;;3.50;80.65
69570;BME280;56781;42.292;23.146;2023-03-16T10:01:49;95205.47;;;3.21;79.60
69570;BME280;56781;42.292;23.146;2023-03-16T10:04:39;95223.28;;;3.61;79.60
69570;BME280;56781;42.292;23.146;2023-03-16T10:10:57;95232.53;;;4.10;79.24
69570;BME280;56781;42.292;23.146;2023-03-16T10:13:13;95216.63;;;3.48;78.82
69570;BME280;56781;42.292;23.146;2023-03-16T10:15:42;95215.75;;;3.22;78.48
69570;BME280;56781;42.292;23.146;2023-03-16T10:18:25;95244.66;;;3.44;78.03
69570;BME280;56781;42.292;23.146;2023-03-16T10:20:55;95213.66;;;3.24;78.59
69570;BME280;56781;42.292;23.146;2023-03-16T10:23:24;95229.31;;;3.46;78.26
69570;BME280;56781;42.292;23.146;2023-03-16T10:25:53;95221.88;;;3.33;77.50
69570;BME280;56781;42.292;23.146;2023-03-16T10:28:23;95226.69;;;3.77;79.46
69570;BME280;56781;42.292;23.146;2023-03-16T10:30:55;95224.56;;;3.48;78.33
69570;BME280;56781;42.292;23.146;2023-03-16T10:33:26;95230.94;;;3.63;78.50
69570;BME280;56781;42.292;23.146;2023-03-16T10:38:29;95213.72;;;3.65;78.17
69570;BME280;56781;42.292;23.146;2023-03-16T10:40:57;95237.84;;;3.99;77.01
69570;BME280;56781;42.292;23.146;2023-03-16T10:43:25;95249.50;;;3.83;77.06
69570;BME280;56781;42.292;23.146;2023-03-16T10:45:57;95246.34;;;3.96;76.09
69570;BME280;56781;42.292;23.146;2023-03-16T10:48:31;95257.97;;;4.21;76.39
69570;BME280;56781;42.292;23.146;2023-03-16T10:51:05;95238.38;;;3.96;76.23
69570;BME280;56781;42.292;23.146;2023-03-16T10:53:35;95219.81;;;4.12;75.55
69570;BME280;56781;42.292;23.146;2023-03-16T10:56:21;95235.19;;;4.20;75.33
69570;BME280;56781;42.292;23.146;2023-03-16T10:58:48;95220.63;;;4.22;75.72
69570;BME280;56781;42.292;23.146;2023-03-16T11:01:23;95222.72;;;4.31;73.96
69570;BME280;56781;42.292;23.146;2023-03-16T11:03:54;95228.28;;;4.39;74.62
69570;BME280;56781;42.292;23.146;2023-03-16T11:06:27;95244.41;;;4.63;74.27
69570;BME280;56781;42.292;23.146;2023-03-16T11:09:05;95221.31;;;4.64;73.68
69570;BME280;56781;42.292;23.146;2023-03-16T11:11:35;95230.88;;;4.75;73.33
69570;BME280;56781;42.292;23.146;2023-03-16T11:14:09;95214.13;;;4.75;74.28
69570;BME280;56781;42.292;23.146;2023-03-16T11:16:50;95207.03;;;4.55;73.10
69570;BME280;56781;42.292;23.146;2023-03-16T11:19:23;95239.88;;;4.74;73.79
69570;BME280;56781;42.292;23.146;2023-03-16T11:22:14;95233.47;;;4.80;73.89
69570;BME280;56781;42.292;23.146;2023-03-16T11:24:51;95242.50;;;4.84;72.28
69570;BME280;56781;42.292;23.146;2023-03-16T11:30:02;95255.28;;;4.67;71.91
69570;BME280;56781;42.292;23.146;2023-03-16T11:32:38;95222.97;;;4.44;73.58
69570;BME280;56781;42.292;23.146;2023-03-16T11:35:12;95225.41;;;4.15;72.81
69570;BME280;56781;42.292;23.146;2023-03-16T11:40:40;95232.00;;;4.38;75.24
69570;BME280;56781;42.292;23.146;2023-03-16T11:43:31;95246.31;;;4.37;74.70
69570;BME280;56781;42.292;23.146;2023-03-16T11:52:08;95218.75;;;4.38;74.65
69570;BME280;56781;42.292;23.146;2023-03-16T11:54:56;95226.69;;;4.43;73.98
69570;BME280;56781;42.292;23.146;2023-03-16T11:57:37;95220.88;;;4.31;73.92
69570;BME280;56781;42.292;23.146;2023-03-16T12:03:03;95223.50;;;4.47;74.22
69570;BME280;56781;42.292;23.146;2023-03-16T12:11:13;95259.56;;;4.32;76.15
69570;BME280;56781;42.292;23.146;2023-03-16T12:13:56;95252.41;;;4.17;75.36
69570;BME280;56781;42.292;23.146;2023-03-16T12:16:32;95242.34;;;4.04;75.32
69570;BME280;56781;42.292;23.146;2023-03-16T12:19:40;95239.94;;;4.28;75.75
69570;BME280;56781;42.292;23.146;2023-03-16T12:22:40;95264.88;;;4.22;74.26
69570;BME280;56781;42.292;23.146;2023-03-16T12:25:18;95279.19;;;4.26;75.19
69570;BME280;56781;42.292;23.146;2023-03-16T12:27:50;95254.00;;;4.08;75.99
69570;BME280;56781;42.292;23.146;2023-03-16T12:30:48;95259.56;;;4.02;75.72
69570;BME280;56781;42.292;23.146;2023-03-16T12:36:06;95276.00;;;4.14;75.86
69570;BME280;56781;42.292;23.146;2023-03-16T12:49:31;95281.25;;;3.93;77.51
69570;BME280;56781;42.292;23.146;2023-03-16T12:52:03;95297.94;;;3.84;78.44
69570;BME280;56781;42.292;23.146;2023-03-16T12:54:31;95278.84;;;3.66;80.18
69570;BME280;56781;42.292;23.146;2023-03-16T12:57:07;95289.94;;;3.53;81.65
69570;BME280;56781;42.292;23.146;2023-03-16T12:59:45;95289.56;;;3.24;81.82
69570;BME280;56781;42.292;23.146;2023-03-16T13:02:23;95294.31;;;3.22;83.10
69570;BME280;56781;42.292;23.146;2023-03-16T13:04:58;95284.56;;;3.27;84.88
69570;BME280;56781;42.292;23.146;2023-03-16T13:07:28;95294.13;;;3.39;85.36
69570;BME280;56781;42.292;23.146;2023-03-16T13:10:09;95288.47;;;3.15;84.43
69570;BME280;56781;42.292;23.146;2023-03-16T13:12:38;95298.75;;;3.06;85.90
69570;BME280;56781;42.292;23.146;2023-03-16T13:15:25;95313.91;;;3.21;86.02
69570;BME280;56781;42.292;23.146;2023-03-16T13:20:50;95313.22;;;3.51;85.09
69570;BME280;56781;42.292;23.146;2023-03-16T13:26:15;95302.81;;;3.24;84.45
69570;BME280;56781;42.292;23.146;2023-03-16T13:28:50;95318.44;;;3.36;86.10
69570;BME280;56781;42.292;23.146;2023-03-16T13:31:23;95324.06;;;3.54;84.00
69570;BME280;56781;42.292;23.146;2023-03-16T13:33:53;95317.13;;;3.33;84.86
69570;BME280;56781;42.292;23.146;2023-03-16T13:36:25;95343.13;;;3.57;83.52
69570;BME280;56781;42.292;23.146;2023-03-16T13:39:06;95314.47;;;3.33;83.34
69570;BME280;56781;42.292;23.146;2023-03-16T13:41:39;95338.34;;;3.48;83.84
69570;BME280;56781;42.292;23.146;2023-03-16T13:44:13;95324.06;;;3.54;83.26
69570;BME280;56781;42.292;23.146;2023-03-16T13:46:41;95342.91;;;3.73;83.30
69570;BME280;56781;42.292;23.146;2023-03-16T13:49:11;95320.88;;;3.42;82.96
69570;BME280;56781;42.292;23.146;2023-03-16T13:51:38;95354.84;;;3.81;83.87
69570;BME280;56781;42.292;23.146;2023-03-16T13:54:20;95325.97;;;3.64;82.52
69570;BME280;56781;42.292;23.146;2023-03-16T13:56:55;95323.50;;;3.42;84.52
69570;BME280;56781;42.292;23.146;2023-03-16T13:59:24;95339.69;;;3.51;85.52
69570;BME280;56781;42.292;23.146;2023-03-16T14:01:57;95332.75;;;3.35;84.48
69570;BME280;56781;42.292;23.146;2023-03-16T14:04:28;95334.81;;;3.27;84.97
69570;BME280;56781;42.292;23.146;2023-03-16T14:06:58;95327.03;;;3.05;85.52
69570;BME280;56781;42.292;23.146;2023-03-16T14:09:28;95361.06;;;3.34;87.27
69570;BME280;56781;42.292;23.146;2023-03-16T14:11:57;95343.69;;;3.06;86.84